sensor_id;sensor_type;location;lat;lon;timestamp;P1;durP1;ratioP1;P2;durP2;ratioP2
21339;SDS011;10828;47.064;15.422;2022-12-18T00:01:32;13.50;;;4.33;;
21339;SDS011;10828;47.064;15.422;2022-12-18T00:04:00;9.80;;;4.93;;
21339;SDS011;10828;47.064;15.422;2022-12-18T00:06:27;11.23;;;4.57;;
21339;SDS011;10828;47.064;15.422;2022-12-18T00:08:55;12.40;;;3.83;;
21339;SDS011;10828;47.064;15.422;2022-12-18T00:11:24;9.30;;;4.10;;
21339;SDS011;10828;47.064;15.422;2022-12-18T00:13:59;9.20;;;3.77;;
21339;SDS011;10828;47.064;15.422;2022-12-18T00:16:25;5.27;;;3.20;;
21339;SDS011;10828;47.064;15.422;2022-12-18T00:18:53;15.67;;;4.07;;
21339;SDS011;10828;47.064;15.422;2022-12-18T00:21:20;14.77;;;4.53;;
21339;SDS011;10828;47.064;15.422;2022-12-18T00:23:48;11.07;;;5.00;;
21339;SDS011;10828;47.064;15.422;2022-12-18T00:26:16;13.17;;;4.67;;
21339;SDS011;10828;47.064;15.422;2022-12-18T00:28:44;11.83;;;4.23;;
21339;SDS011;10828;47.064;15.422;2022-12-18T00:31:11;13.03;;;4.17;;
21339;SDS011;10828;47.064;15.422;2022-12-18T00:33:39;9.30;;;3.60;;
21339;SDS011;10828;47.064;15.422;2022-12-18T00:36:09;7.80;;;3.20;;
21339;SDS011;10828;47.064;15.422;2022-12-18T00:38:39;5.63;;;3.33;;
21339;SDS011;10828;47.064;15.422;2022-12-18T00:41:05;12.40;;;4.30;;
21339;SDS011;10828;47.064;15.422;2022-12-18T00:43:31;4.20;;;2.50;;
21339;SDS011;10828;47.064;15.422;2022-12-18T00:45:57;9.43;;;3.80;;
21339;SDS011;10828;47.064;15.422;2022-12-18T00:48:22;10.13;;;3.53;;
21339;SDS011;10828;47.064;15.422;2022-12-18T00:50:48;9.87;;;3.73;;
21339;SDS011;10828;47.064;15.422;2022-12-18T00:53:14;11.63;;;4.47;;
21339;SDS011;10828;47.064;15.422;2022-12-18T00:55:40;13.97;;;4.50;;
21339;SDS011;10828;47.064;15.422;2022-12-18T00:58:07;9.17;;;3.57;;
21339;SDS011;10828;47.064;15.422;2022-12-18T01:00:35;13.07;;;4.27;;
21339;SDS011;10828;47.064;15.422;2022-12-18T01:03:01;9.67;;;4.27;;
21339;SDS011;10828;47.064;15.422;2022-12-18T01:05:27;19.00;;;3.77;;
21339;SDS011;10828;47.064;15.422;2022-12-18T01:07:54;11.90;;;4.33;;
21339;SDS011;10828;47.064;15.422;2022-12-18T01:10:21;10.30;;;4.63;;
21339;SDS011;10828;47.064;15.422;2022-12-18T01:12:47;8.23;;;3.23;;
21339;SDS011;10828;47.064;15.422;2022-12-18T01:15:15;10.70;;;4.67;;
21339;SDS011;10828;47.064;15.422;2022-12-18T01:17:41;10.73;;;4.43;;
21339;SDS011;10828;47.064;15.422;2022-12-18T01:20:07;15.17;;;5.20;;
21339;SDS011;10828;47.064;15.422;2022-12-18T01:22:35;14.57;;;4.57;;
21339;SDS011;10828;47.064;15.422;2022-12-18T01:25:01;9.70;;;4.53;;
21339;SDS011;10828;47.064;15.422;2022-12-18T01:27:27;8.63;;;3.60;;
21339;SDS011;10828;47.064;15.422;2022-12-18T01:29:53;10.47;;;4.20;;
21339;SDS011;10828;47.064;15.422;2022-12-18T01:32:19;14.47;;;5.80;;
21339;SDS011;10828;47.064;15.422;2022-12-18T01:34:45;8.53;;;2.97;;
21339;SDS011;10828;47.064;15.422;2022-12-18T01:37:11;12.77;;;4.13;;
21339;SDS011;10828;47.064;15.422;2022-12-18T01:39:36;12.27;;;3.63;;
21339;SDS011;10828;47.064;15.422;2022-12-18T01:42:05;10.60;;;3.33;;
21339;SDS011;10828;47.064;15.422;2022-12-18T01:49:58;5.00;;;2.57;;
21339;SDS011;10828;47.064;15.422;2022-12-18T01:52:33;4.63;;;2.57;;
21339;SDS011;10828;47.064;15.422;2022-12-18T01:55:00;7.93;;;2.53;;
21339;SDS011;10828;47.064;15.422;2022-12-18T01:57:29;7.27;;;2.47;;
21339;SDS011;10828;47.064;15.422;2022-12-18T01:59:57;9.60;;;2.13;;
21339;SDS011;10828;47.064;15.422;2022-12-18T02:02:27;3.73;;;1.87;;
21339;SDS011;10828;47.064;15.422;2022-12-18T02:04:53;5.00;;;1.80;;
21339;SDS011;10828;47.064;15.422;2022-12-18T02:12:21;6.93;;;2.73;;
21339;SDS011;10828;47.064;15.422;2022-12-18T02:17:42;4.53;;;2.10;;
21339;SDS011;10828;47.064;15.422;2022-12-18T02:20:14;5.57;;;2.33;;
21339;SDS011;10828;47.064;15.422;2022-12-18T02:23:22;10.10;;;2.90;;
21339;SDS011;10828;47.064;15.422;2022-12-18T02:26:06;4.03;;;1.97;;
21339;SDS011;10828;47.064;15.422;2022-12-18T02:28:55;5.13;;;3.23;;
21339;SDS011;10828;47.064;15.422;2022-12-18T02:31:26;9.70;;;2.40;;
21339;SDS011;10828;47.064;15.422;2022-12-18T02:33:56;7.83;;;2.20;;
21339;SDS011;10828;47.064;15.422;2022-12-18T02:36:26;4.63;;;2.27;;
21339;SDS011;10828;47.064;15.422;2022-12-18T02:38:53;6.20;;;2.77;;
21339;SDS011;10828;47.064;15.422;2022-12-18T02:41:20;10.20;;;1.90;;
21339;SDS011;10828;47.064;15.422;2022-12-18T02:44:07;3.73;;;2.13;;
21339;SDS011;10828;47.064;15.422;2022-12-18T02:46:42;5.53;;;2.70;;
21339;SDS011;10828;47.064;15.422;2022-12-18T02:55:19;11.07;;;3.73;;
21339;SDS011;10828;47.064;15.422;2022-12-18T03:03:43;8.90;;;4.30;;
21339;SDS011;10828;47.064;15.422;2022-12-18T03:09:10;11.73;;;5.40;;
21339;SDS011;10828;47.064;15.422;2022-12-18T03:11:41;4.03;;;2.60;;
21339;SDS011;10828;47.064;15.422;2022-12-18T03:14:30;8.53;;;3.67;;
21339;SDS011;10828;47.064;15.422;2022-12-18T03:17:00;6.10;;;3.00;;
21339;SDS011;10828;47.064;15.422;2022-12-18T03:19:29;12.53;;;4.67;;
21339;SDS011;10828;47.064;15.422;2022-12-18T03:21:58;12.33;;;3.87;;
21339;SDS011;10828;47.064;15.422;2022-12-18T03:24:28;14.97;;;4.33;;
21339;SDS011;10828;47.064;15.422;2022-12-18T03:26:57;13.27;;;4.53;;
21339;SDS011;10828;47.064;15.422;2022-12-18T03:29:30;7.97;;;3.50;;
21339;SDS011;10828;47.064;15.422;2022-12-18T03:32:10;12.83;;;4.20;;
21339;SDS011;10828;47.064;15.422;2022-12-18T03:34:40;5.43;;;3.27;;
21339;SDS011;10828;47.064;15.422;2022-12-18T03:37:08;8.53;;;4.03;;
21339;SDS011;10828;47.064;15.422;2022-12-18T03:39:34;9.77;;;4.57;;
21339;SDS011;10828;47.064;15.422;2022-12-18T03:42:21;5.40;;;3.70;;
21339;SDS011;10828;47.064;15.422;2022-12-18T03:45:12;7.53;;;2.23;;
21339;SDS011;10828;47.064;15.422;2022-12-18T03:50:12;8.60;;;2.10;;
21339;SDS011;10828;47.064;15.422;2022-12-18T03:52:58;7.10;;;3.23;;
21339;SDS011;10828;47.064;15.422;2022-12-18T03:55:36;7.00;;;3.00;;
21339;SDS011;10828;47.064;15.422;2022-12-18T03:58:03;4.83;;;2.07;;
21339;SDS011;10828;47.064;15.422;2022-12-18T04:00:31;4.67;;;2.10;;
21339;SDS011;10828;47.064;15.422;2022-12-18T04:02:59;5.83;;;2.00;;
21339;SDS011;10828;47.064;15.422;2022-12-18T04:05:27;3.03;;;1.60;;
21339;SDS011;10828;47.064;15.422;2022-12-18T04:07:54;1.77;;;1.33;;
21339;SDS011;10828;47.064;15.422;2022-12-18T04:10:22;2.80;;;1.63;;
21339;SDS011;10828;47.064;15.422;2022-12-18T04:12:48;3.33;;;1.87;;
21339;SDS011;10828;47.064;15.422;2022-12-18T04:15:13;3.80;;;1.80;;
21339;SDS011;10828;47.064;15.422;2022-12-18T04:17:42;4.60;;;2.10;;
21339;SDS011;10828;47.064;15.422;2022-12-18T04:20:15;3.43;;;1.63;;
21339;SDS011;10828;47.064;15.422;2022-12-18T04:22:41;4.53;;;1.97;;
21339;SDS011;10828;47.064;15.422;2022-12-18T04:25:07;4.07;;;1.77;;
21339;SDS011;10828;47.064;15.422;2022-12-18T04:27:37;2.23;;;1.67;;
21339;SDS011;10828;47.064;15.422;2022-12-18T04:30:02;8.50;;;2.17;;
21339;SDS011;10828;47.064;15.422;2022-12-18T04:32:28;5.70;;;1.97;;
21339;SDS011;10828;47.064;15.422;2022-12-18T04:34:54;1.93;;;1.07;;
21339;SDS011;10828;47.064;15.422;2022-12-18T04:37:20;2.43;;;1.33;;
21339;SDS011;10828;47.064;15.422;2022-12-18T04:39:46;1.37;;;1.07;;
21339;SDS011;10828;47.064;15.422;2022-12-18T04:42:12;1.60;;;1.10;;
21339;SDS011;10828;47.064;15.422;2022-12-18T04:44:44;5.93;;;2.00;;
21339;SDS011;10828;47.064;15.422;2022-12-18T04:47:10;3.23;;;1.20;;
21339;SDS011;10828;47.064;15.422;2022-12-18T04:49:35;4.37;;;1.97;;
21339;SDS011;10828;47.064;15.422;2022-12-18T04:52:01;3.40;;;1.33;;
21339;SDS011;10828;47.064;15.422;2022-12-18T04:54:27;4.97;;;2.10;;
21339;SDS011;10828;47.064;15.422;2022-12-18T04:56:52;4.43;;;1.90;;
21339;SDS011;10828;47.064;15.422;2022-12-18T04:59:18;3.37;;;2.00;;
21339;SDS011;10828;47.064;15.422;2022-12-18T05:01:43;3.97;;;1.67;;
21339;SDS011;10828;47.064;15.422;2022-12-18T05:04:10;6.53;;;2.67;;
21339;SDS011;10828;47.064;15.422;2022-12-18T05:06:35;5.50;;;2.70;;
21339;SDS011;10828;47.064;15.422;2022-12-18T05:09:01;9.47;;;3.07;;
21339;SDS011;10828;47.064;15.422;2022-12-18T05:11:27;6.37;;;2.73;;
21339;SDS011;10828;47.064;15.422;2022-12-18T05:13:53;6.73;;;3.10;;
21339;SDS011;10828;47.064;15.422;2022-12-18T05:16:27;13.53;;;5.23;;
21339;SDS011;10828;47.064;15.422;2022-12-18T05:18:53;11.23;;;4.23;;
21339;SDS011;10828;47.064;15.422;2022-12-18T05:21:19;13.80;;;4.37;;
21339;SDS011;10828;47.064;15.422;2022-12-18T05:23:45;10.77;;;5.57;;
21339;SDS011;10828;47.064;15.422;2022-12-18T05:26:13;7.17;;;3.23;;
21339;SDS011;10828;47.064;15.422;2022-12-18T05:28:41;15.57;;;3.63;;
21339;SDS011;10828;47.064;15.422;2022-12-18T05:31:07;8.33;;;4.17;;
21339;SDS011;10828;47.064;15.422;2022-12-18T05:33:39;7.63;;;2.93;;
21339;SDS011;10828;47.064;15.422;2022-12-18T05:36:06;10.03;;;3.50;;
21339;SDS011;10828;47.064;15.422;2022-12-18T05:38:33;9.33;;;3.13;;
21339;SDS011;10828;47.064;15.422;2022-12-18T05:41:01;10.30;;;4.00;;
21339;SDS011;10828;47.064;15.422;2022-12-18T05:43:27;7.13;;;3.73;;
21339;SDS011;10828;47.064;15.422;2022-12-18T05:45:53;5.97;;;3.33;;
21339;SDS011;10828;47.064;15.422;2022-12-18T05:48:20;6.33;;;3.53;;
21339;SDS011;10828;47.064;15.422;2022-12-18T05:50:47;8.87;;;3.73;;
21339;SDS011;10828;47.064;15.422;2022-12-18T05:53:14;5.90;;;4.33;;
21339;SDS011;10828;47.064;15.422;2022-12-18T05:55:42;7.87;;;4.20;;
21339;SDS011;10828;47.064;15.422;2022-12-18T05:58:09;7.40;;;3.10;;
21339;SDS011;10828;47.064;15.422;2022-12-18T06:00:37;21.80;;;3.50;;
21339;SDS011;10828;47.064;15.422;2022-12-18T06:03:06;9.17;;;4.20;;
21339;SDS011;10828;47.064;15.422;2022-12-18T06:05:37;4.47;;;2.67;;
21339;SDS011;10828;47.064;15.422;2022-12-18T06:10:32;11.43;;;5.50;;
21339;SDS011;10828;47.064;15.422;2022-12-18T06:12:58;11.00;;;4.20;;
21339;SDS011;10828;47.064;15.422;2022-12-18T06:15:24;7.00;;;3.23;;
21339;SDS011;10828;47.064;15.422;2022-12-18T06:17:50;5.17;;;3.20;;
21339;SDS011;10828;47.064;15.422;2022-12-18T06:20:15;8.47;;;3.10;;
21339;SDS011;10828;47.064;15.422;2022-12-18T06:22:41;6.47;;;2.70;;
21339;SDS011;10828;47.064;15.422;2022-12-18T06:25:07;9.93;;;4.30;;
21339;SDS011;10828;47.064;15.422;2022-12-18T06:27:32;4.80;;;3.60;;
21339;SDS011;10828;47.064;15.422;2022-12-18T06:29:58;13.83;;;2.90;;
21339;SDS011;10828;47.064;15.422;2022-12-18T06:32:24;9.90;;;3.00;;
21339;SDS011;10828;47.064;15.422;2022-12-18T06:34:50;8.20;;;3.10;;
21339;SDS011;10828;47.064;15.422;2022-12-18T06:37:16;9.40;;;3.77;;
21339;SDS011;10828;47.064;15.422;2022-12-18T06:39:42;8.63;;;3.53;;
21339;SDS011;10828;47.064;15.422;2022-12-18T06:42:07;8.00;;;4.33;;
21339;SDS011;10828;47.064;15.422;2022-12-18T06:44:33;7.27;;;2.87;;
21339;SDS011;10828;47.064;15.422;2022-12-18T06:46:58;10.40;;;3.67;;
21339;SDS011;10828;47.064;15.422;2022-12-18T06:49:24;9.10;;;4.30;;
21339;SDS011;10828;47.064;15.422;2022-12-18T06:51:50;6.93;;;4.17;;
21339;SDS011;10828;47.064;15.422;2022-12-18T06:54:15;14.20;;;5.27;;
21339;SDS011;10828;47.064;15.422;2022-12-18T06:56:41;15.97;;;4.97;;
21339;SDS011;10828;47.064;15.422;2022-12-18T06:59:06;9.53;;;5.03;;
21339;SDS011;10828;47.064;15.422;2022-12-18T07:01:32;9.07;;;3.93;;
21339;SDS011;10828;47.064;15.422;2022-12-18T07:03:57;14.83;;;3.70;;
21339;SDS011;10828;47.064;15.422;2022-12-18T07:06:24;12.07;;;4.47;;
21339;SDS011;10828;47.064;15.422;2022-12-18T07:08:51;5.70;;;2.47;;
21339;SDS011;10828;47.064;15.422;2022-12-18T07:11:18;10.90;;;5.40;;
21339;SDS011;10828;47.064;15.422;2022-12-18T07:13:45;7.10;;;2.83;;
21339;SDS011;10828;47.064;15.422;2022-12-18T07:16:12;8.63;;;3.13;;
21339;SDS011;10828;47.064;15.422;2022-12-18T07:18:39;11.10;;;4.13;;
21339;SDS011;10828;47.064;15.422;2022-12-18T07:21:06;8.20;;;3.77;;
21339;SDS011;10828;47.064;15.422;2022-12-18T07:23:34;2.90;;;1.53;;
21339;SDS011;10828;47.064;15.422;2022-12-18T07:26:11;4.87;;;2.03;;
21339;SDS011;10828;47.064;15.422;2022-12-18T07:28:38;6.43;;;1.87;;
21339;SDS011;10828;47.064;15.422;2022-12-18T07:31:09;4.47;;;1.73;;
21339;SDS011;10828;47.064;15.422;2022-12-18T07:33:40;4.50;;;2.07;;
21339;SDS011;10828;47.064;15.422;2022-12-18T07:36:06;8.50;;;3.10;;
21339;SDS011;10828;47.064;15.422;2022-12-18T07:38:36;3.07;;;1.97;;
21339;SDS011;10828;47.064;15.422;2022-12-18T07:41:02;4.47;;;2.33;;
21339;SDS011;10828;47.064;15.422;2022-12-18T07:43:30;3.33;;;2.27;;
21339;SDS011;10828;47.064;15.422;2022-12-18T07:45:55;6.43;;;3.10;;
21339;SDS011;10828;47.064;15.422;2022-12-18T07:48:21;5.03;;;2.13;;
21339;SDS011;10828;47.064;15.422;2022-12-18T07:50:46;6.57;;;2.93;;
21339;SDS011;10828;47.064;15.422;2022-12-18T07:53:12;10.33;;;3.23;;
21339;SDS011;10828;47.064;15.422;2022-12-18T07:55:39;5.87;;;3.20;;
21339;SDS011;10828;47.064;15.422;2022-12-18T07:58:06;4.23;;;2.60;;
21339;SDS011;10828;47.064;15.422;2022-12-18T08:00:32;4.80;;;2.30;;
21339;SDS011;10828;47.064;15.422;2022-12-18T08:02:57;5.97;;;2.97;;
21339;SDS011;10828;47.064;15.422;2022-12-18T08:05:23;10.80;;;3.93;;
21339;SDS011;10828;47.064;15.422;2022-12-18T08:07:49;7.73;;;2.20;;
21339;SDS011;10828;47.064;15.422;2022-12-18T08:10:15;5.60;;;2.70;;
21339;SDS011;10828;47.064;15.422;2022-12-18T08:12:41;7.67;;;3.30;;
21339;SDS011;10828;47.064;15.422;2022-12-18T08:15:07;9.17;;;2.40;;
21339;SDS011;10828;47.064;15.422;2022-12-18T08:17:33;10.70;;;3.27;;
21339;SDS011;10828;47.064;15.422;2022-12-18T08:19:58;3.43;;;2.40;;
21339;SDS011;10828;47.064;15.422;2022-12-18T08:22:24;5.80;;;2.90;;
21339;SDS011;10828;47.064;15.422;2022-12-18T08:24:50;9.63;;;2.67;;
21339;SDS011;10828;47.064;15.422;2022-12-18T08:27:16;9.43;;;3.13;;
21339;SDS011;10828;47.064;15.422;2022-12-18T08:29:41;8.30;;;3.30;;
21339;SDS011;10828;47.064;15.422;2022-12-18T08:32:07;9.27;;;2.87;;
21339;SDS011;10828;47.064;15.422;2022-12-18T08:34:33;11.17;;;3.70;;
21339;SDS011;10828;47.064;15.422;2022-12-18T08:36:59;7.40;;;2.47;;
21339;SDS011;10828;47.064;15.422;2022-12-18T08:39:26;8.67;;;3.13;;
21339;SDS011;10828;47.064;15.422;2022-12-18T08:41:53;5.63;;;3.40;;
21339;SDS011;10828;47.064;15.422;2022-12-18T08:44:38;9.40;;;2.53;;
21339;SDS011;10828;47.064;15.422;2022-12-18T08:47:04;3.63;;;2.70;;
21339;SDS011;10828;47.064;15.422;2022-12-18T08:49:31;7.87;;;2.57;;
21339;SDS011;10828;47.064;15.422;2022-12-18T08:51:56;8.63;;;3.03;;
21339;SDS011;10828;47.064;15.422;2022-12-18T08:54:23;7.20;;;3.60;;
21339;SDS011;10828;47.064;15.422;2022-12-18T08:56:50;18.57;;;4.20;;
21339;SDS011;10828;47.064;15.422;2022-12-18T08:59:16;6.03;;;3.10;;
21339;SDS011;10828;47.064;15.422;2022-12-18T09:01:45;14.43;;;4.53;;
21339;SDS011;10828;47.064;15.422;2022-12-18T09:04:11;11.67;;;4.00;;
21339;SDS011;10828;47.064;15.422;2022-12-18T09:06:37;11.10;;;4.77;;
21339;SDS011;10828;47.064;15.422;2022-12-18T09:09:04;6.43;;;3.40;;
21339;SDS011;10828;47.064;15.422;2022-12-18T09:11:30;8.10;;;3.63;;
21339;SDS011;10828;47.064;15.422;2022-12-18T09:13:57;9.63;;;3.07;;
21339;SDS011;10828;47.064;15.422;2022-12-18T09:16:24;10.93;;;4.30;;
21339;SDS011;10828;47.064;15.422;2022-12-18T09:18:53;10.00;;;4.40;;
21339;SDS011;10828;47.064;15.422;2022-12-18T09:21:24;15.27;;;3.87;;
21339;SDS011;10828;47.064;15.422;2022-12-18T09:23:51;12.63;;;5.13;;
21339;SDS011;10828;47.064;15.422;2022-12-18T09:26:18;12.40;;;4.37;;
21339;SDS011;10828;47.064;15.422;2022-12-18T09:28:44;8.30;;;3.90;;
21339;SDS011;10828;47.064;15.422;2022-12-18T09:31:12;15.17;;;4.40;;
21339;SDS011;10828;47.064;15.422;2022-12-18T09:33:39;12.83;;;5.00;;
21339;SDS011;10828;47.064;15.422;2022-12-18T09:36:07;10.83;;;4.90;;
21339;SDS011;10828;47.064;15.422;2022-12-18T09:38:36;21.50;;;4.97;;
21339;SDS011;10828;47.064;15.422;2022-12-18T09:41:22;11.60;;;4.40;;
21339;SDS011;10828;47.064;15.422;2022-12-18T09:49:51;13.73;;;5.23;;
21339;SDS011;10828;47.064;15.422;2022-12-18T09:52:26;14.07;;;5.03;;
21339;SDS011;10828;47.064;15.422;2022-12-18T09:55:00;18.40;;;4.63;;
21339;SDS011;10828;47.064;15.422;2022-12-18T09:57:47;10.33;;;3.73;;
21339;SDS011;10828;47.064;15.422;2022-12-18T10:00:18;13.20;;;5.57;;
21339;SDS011;10828;47.064;15.422;2022-12-18T10:02:49;11.17;;;5.13;;
21339;SDS011;10828;47.064;15.422;2022-12-18T10:05:20;9.80;;;4.70;;
21339;SDS011;10828;47.064;15.422;2022-12-18T10:10:52;9.63;;;4.30;;
21339;SDS011;10828;47.064;15.422;2022-12-18T10:13:26;10.50;;;3.53;;
21339;SDS011;10828;47.064;15.422;2022-12-18T10:16:07;11.20;;;4.83;;
21339;SDS011;10828;47.064;15.422;2022-12-18T10:21:13;8.67;;;3.73;;
21339;SDS011;10828;47.064;15.422;2022-12-18T10:24:00;7.07;;;2.93;;
21339;SDS011;10828;47.064;15.422;2022-12-18T10:26:35;4.93;;;3.10;;
21339;SDS011;10828;47.064;15.422;2022-12-18T10:29:01;15.60;;;5.03;;
21339;SDS011;10828;47.064;15.422;2022-12-18T10:31:34;13.83;;;4.80;;
21339;SDS011;10828;47.064;15.422;2022-12-18T10:34:00;8.93;;;4.17;;
21339;SDS011;10828;47.064;15.422;2022-12-18T10:36:26;7.97;;;4.67;;
21339;SDS011;10828;47.064;15.422;2022-12-18T10:38:52;8.57;;;4.30;;
21339;SDS011;10828;47.064;15.422;2022-12-18T10:43:44;8.30;;;5.37;;
21339;SDS011;10828;47.064;15.422;2022-12-18T10:48:37;7.13;;;4.07;;
21339;SDS011;10828;47.064;15.422;2022-12-18T10:51:23;5.87;;;3.43;;
21339;SDS011;10828;47.064;15.422;2022-12-18T10:56:29;8.03;;;3.33;;
21339;SDS011;10828;47.064;15.422;2022-12-18T10:59:10;11.73;;;3.70;;
21339;SDS011;10828;47.064;15.422;2022-12-18T11:02:16;14.53;;;3.90;;
21339;SDS011;10828;47.064;15.422;2022-12-18T11:04:51;7.37;;;3.83;;
21339;SDS011;10828;47.064;15.422;2022-12-18T11:07:18;10.90;;;3.80;;
21339;SDS011;10828;47.064;15.422;2022-12-18T11:09:44;10.77;;;4.50;;
21339;SDS011;10828;47.064;15.422;2022-12-18T11:12:28;17.87;;;5.60;;
21339;SDS011;10828;47.064;15.422;2022-12-18T11:14:54;12.47;;;5.10;;
21339;SDS011;10828;47.064;15.422;2022-12-18T11:17:33;12.90;;;4.57;;
21339;SDS011;10828;47.064;15.422;2022-12-18T11:20:01;18.13;;;5.90;;
21339;SDS011;10828;47.064;15.422;2022-12-18T11:22:29;16.43;;;6.30;;
21339;SDS011;10828;47.064;15.422;2022-12-18T11:25:16;10.87;;;3.97;;
21339;SDS011;10828;47.064;15.422;2022-12-18T11:28:03;11.33;;;4.83;;
21339;SDS011;10828;47.064;15.422;2022-12-18T11:36:42;12.67;;;4.13;;
21339;SDS011;10828;47.064;15.422;2022-12-18T11:39:21;11.93;;;4.23;;
21339;SDS011;10828;47.064;15.422;2022-12-18T11:47:44;6.63;;;3.30;;
21339;SDS011;10828;47.064;15.422;2022-12-18T11:50:16;9.27;;;4.60;;
21339;SDS011;10828;47.064;15.422;2022-12-18T11:52:45;11.70;;;3.73;;
21339;SDS011;10828;47.064;15.422;2022-12-18T11:55:14;20.43;;;5.93;;
21339;SDS011;10828;47.064;15.422;2022-12-18T12:00:20;13.80;;;5.50;;
21339;SDS011;10828;47.064;15.422;2022-12-18T12:09:14;17.17;;;6.77;;
21339;SDS011;10828;47.064;15.422;2022-12-18T12:14:43;11.33;;;5.83;;
21339;SDS011;10828;47.064;15.422;2022-12-18T12:25:19;12.13;;;4.73;;
21339;SDS011;10828;47.064;15.422;2022-12-18T12:39:30;16.77;;;7.30;;
21339;SDS011;10828;47.064;15.422;2022-12-18T12:42:30;12.40;;;5.00;;
21339;SDS011;10828;47.064;15.422;2022-12-18T12:45:37;13.80;;;4.97;;
21339;SDS011;10828;47.064;15.422;2022-12-18T12:48:31;11.13;;;4.60;;
21339;SDS011;10828;47.064;15.422;2022-12-18T12:51:16;16.37;;;5.60;;
21339;SDS011;10828;47.064;15.422;2022-12-18T12:53:50;31.70;;;7.60;;
21339;SDS011;10828;47.064;15.422;2022-12-18T12:56:19;12.00;;;5.20;;
21339;SDS011;10828;47.064;15.422;2022-12-18T13:06:58;15.97;;;5.27;;
21339;SDS011;10828;47.064;15.422;2022-12-18T13:09:32;14.53;;;5.83;;
21339;SDS011;10828;47.064;15.422;2022-12-18T13:12:04;21.87;;;6.47;;
21339;SDS011;10828;47.064;15.422;2022-12-18T13:15:11;11.30;;;5.20;;
21339;SDS011;10828;47.064;15.422;2022-12-18T13:17:43;15.43;;;3.97;;
21339;SDS011;10828;47.064;15.422;2022-12-18T13:20:11;21.83;;;6.67;;
21339;SDS011;10828;47.064;15.422;2022-12-18T13:22:40;15.73;;;4.93;;
21339;SDS011;10828;47.064;15.422;2022-12-18T13:41:00;17.27;;;5.47;;
21339;SDS011;10828;47.064;15.422;2022-12-18T13:43:30;23.07;;;6.10;;
21339;SDS011;10828;47.064;15.422;2022-12-18T13:46:04;13.87;;;6.30;;
21339;SDS011;10828;47.064;15.422;2022-12-18T13:48:50;12.87;;;5.37;;
21339;SDS011;10828;47.064;15.422;2022-12-18T13:51:33;16.23;;;5.87;;
21339;SDS011;10828;47.064;15.422;2022-12-18T13:54:02;17.20;;;5.57;;
21339;SDS011;10828;47.064;15.422;2022-12-18T13:56:42;15.63;;;5.80;;
21339;SDS011;10828;47.064;15.422;2022-12-18T13:59:20;16.13;;;5.93;;
21339;SDS011;10828;47.064;15.422;2022-12-18T14:04:23;19.47;;;6.97;;
21339;SDS011;10828;47.064;15.422;2022-12-18T14:06:52;12.23;;;5.33;;
21339;SDS011;10828;47.064;15.422;2022-12-18T14:09:43;16.37;;;5.77;;
21339;SDS011;10828;47.064;15.422;2022-12-18T14:12:31;19.03;;;5.33;;
21339;SDS011;10828;47.064;15.422;2022-12-18T14:18:00;12.93;;;4.90;;
21339;SDS011;10828;47.064;15.422;2022-12-18T14:20:46;16.50;;;6.03;;
21339;SDS011;10828;47.064;15.422;2022-12-18T14:23:34;13.83;;;5.37;;
21339;SDS011;10828;47.064;15.422;2022-12-18T14:26:00;16.07;;;5.50;;
21339;SDS011;10828;47.064;15.422;2022-12-18T14:28:45;13.97;;;5.10;;
21339;SDS011;10828;47.064;15.422;2022-12-18T14:31:20;14.10;;;6.17;;
21339;SDS011;10828;47.064;15.422;2022-12-18T14:33:49;18.70;;;7.50;;
21339;SDS011;10828;47.064;15.422;2022-12-18T14:36:16;16.93;;;4.90;;
21339;SDS011;10828;47.064;15.422;2022-12-18T14:38:55;25.83;;;7.53;;
21339;SDS011;10828;47.064;15.422;2022-12-18T14:41:23;19.83;;;6.63;;
21339;SDS011;10828;47.064;15.422;2022-12-18T14:43:51;16.73;;;6.37;;
21339;SDS011;10828;47.064;15.422;2022-12-18T14:51:57;19.83;;;5.90;;
21339;SDS011;10828;47.064;15.422;2022-12-18T14:54:27;21.73;;;6.23;;
21339;SDS011;10828;47.064;15.422;2022-12-18T14:56:59;12.27;;;6.10;;
21339;SDS011;10828;47.064;15.422;2022-12-18T14:59:31;14.87;;;5.40;;
21339;SDS011;10828;47.064;15.422;2022-12-18T15:02:10;10.87;;;6.20;;
21339;SDS011;10828;47.064;15.422;2022-12-18T15:04:43;15.63;;;6.70;;
21339;SDS011;10828;47.064;15.422;2022-12-18T15:07:12;12.77;;;6.40;;
21339;SDS011;10828;47.064;15.422;2022-12-18T15:12:34;16.10;;;5.93;;
21339;SDS011;10828;47.064;15.422;2022-12-18T15:18:02;14.77;;;5.33;;
21339;SDS011;10828;47.064;15.422;2022-12-18T15:20:52;17.43;;;5.87;;
21339;SDS011;10828;47.064;15.422;2022-12-18T15:25:55;20.67;;;8.23;;
21339;SDS011;10828;47.064;15.422;2022-12-18T15:28:44;18.57;;;7.17;;
21339;SDS011;10828;47.064;15.422;2022-12-18T15:31:29;17.47;;;5.47;;
21339;SDS011;10828;47.064;15.422;2022-12-18T15:34:01;26.40;;;6.47;;
21339;SDS011;10828;47.064;15.422;2022-12-18T15:36:50;22.33;;;6.90;;
21339;SDS011;10828;47.064;15.422;2022-12-18T15:39:18;15.70;;;5.73;;
21339;SDS011;10828;47.064;15.422;2022-12-18T15:41:44;18.80;;;6.40;;
21339;SDS011;10828;47.064;15.422;2022-12-18T15:44:30;20.67;;;6.57;;
21339;SDS011;10828;47.064;15.422;2022-12-18T15:46:56;20.13;;;7.00;;
21339;SDS011;10828;47.064;15.422;2022-12-18T15:49:23;19.03;;;7.23;;
21339;SDS011;10828;47.064;15.422;2022-12-18T15:51:52;26.23;;;6.67;;
21339;SDS011;10828;47.064;15.422;2022-12-18T15:54:23;23.23;;;7.17;;
21339;SDS011;10828;47.064;15.422;2022-12-18T15:57:09;18.00;;;6.77;;
21339;SDS011;10828;47.064;15.422;2022-12-18T15:59:48;13.03;;;5.13;;
21339;SDS011;10828;47.064;15.422;2022-12-18T16:02:16;16.40;;;5.47;;
21339;SDS011;10828;47.064;15.422;2022-12-18T16:04:43;14.90;;;6.90;;
21339;SDS011;10828;47.064;15.422;2022-12-18T16:07:12;13.57;;;5.57;;
21339;SDS011;10828;47.064;15.422;2022-12-18T16:09:38;14.10;;;5.73;;
21339;SDS011;10828;47.064;15.422;2022-12-18T16:12:11;21.50;;;7.67;;
21339;SDS011;10828;47.064;15.422;2022-12-18T16:14:46;19.93;;;7.30;;
21339;SDS011;10828;47.064;15.422;2022-12-18T16:17:13;27.27;;;7.30;;
21339;SDS011;10828;47.064;15.422;2022-12-18T16:19:39;23.97;;;6.33;;
21339;SDS011;10828;47.064;15.422;2022-12-18T16:22:08;21.40;;;6.53;;
21339;SDS011;10828;47.064;15.422;2022-12-18T16:24:58;17.93;;;5.87;;
21339;SDS011;10828;47.064;15.422;2022-12-18T16:27:24;21.00;;;6.67;;
21339;SDS011;10828;47.064;15.422;2022-12-18T16:29:51;29.23;;;6.47;;
21339;SDS011;10828;47.064;15.422;2022-12-18T16:32:21;14.73;;;6.60;;
21339;SDS011;10828;47.064;15.422;2022-12-18T16:34:50;22.57;;;6.67;;
21339;SDS011;10828;47.064;15.422;2022-12-18T16:37:17;15.80;;;7.37;;
21339;SDS011;10828;47.064;15.422;2022-12-18T16:39:44;16.80;;;7.13;;
21339;SDS011;10828;47.064;15.422;2022-12-18T16:44:47;18.80;;;7.07;;
21339;SDS011;10828;47.064;15.422;2022-12-18T16:47:14;16.17;;;7.30;;
21339;SDS011;10828;47.064;15.422;2022-12-18T16:49:40;24.63;;;7.00;;
21339;SDS011;10828;47.064;15.422;2022-12-18T16:52:07;22.67;;;5.97;;
21339;SDS011;10828;47.064;15.422;2022-12-18T16:54:33;16.53;;;6.37;;
21339;SDS011;10828;47.064;15.422;2022-12-18T16:57:02;18.50;;;6.23;;
21339;SDS011;10828;47.064;15.422;2022-12-18T16:59:29;16.27;;;6.10;;
21339;SDS011;10828;47.064;15.422;2022-12-18T17:01:56;17.73;;;6.43;;
21339;SDS011;10828;47.064;15.422;2022-12-18T17:04:22;20.47;;;7.10;;
21339;SDS011;10828;47.064;15.422;2022-12-18T17:06:50;21.70;;;6.47;;
21339;SDS011;10828;47.064;15.422;2022-12-18T17:09:18;20.07;;;6.80;;